Meteo Giornale » Osservazioni meteo Svizzera » Samedan

ore: 14:50 - Osservazioni Meteo Samedan
Lat. 46° 32' N Lon. 9° 53' E Alt. 1706 metri s.l.m.

poco_nuvoloso Europe/Zurich

4 °C

Poco Nuvoloso

Temp. 24 Ore

-10 °C

4 °C

Sud

11.1 Km/h

Dew point -3 °C

Umidità 60 %

Visibilità  10 Km

Il sole sorge alle ore 07:34

Il sole tramonta alle ore 16:40

Data e Ora Cielo e Fenomeni T °C DP °C Um. % Pres. hPa Vis. km Vento km/h
Oggi h: 14:50 poco_nuvoloso Poco Nuvoloso 4 -3 60 1019 10 S 11.1
Oggi h: 14:20 sereno Sereno 4 -3 60 1019 10 S 16.7
Oggi h: 13:50 sereno Sereno 4 -4 55 1019 10 N 5.5
Oggi h: 13:20 sereno Sereno 3 -6 51 1019 10 N 3.7
Oggi h: 12:50 sereno Sereno 1 -4 69 1019 10 N 3.7
Oggi h: 12:20 sereno Sereno 0 -7 59 1020 10 N 0
Oggi h: 11:50 sereno Sereno -1 -7 63 1020 10 N 1.8
Oggi h: 11:20 sereno Sereno -2 -6 73 1021 10 N 3.7
Oggi h: 10:50 sereno Sereno -4 -8 73 1021 10 N 1.8
Oggi h: 10:20 sereno Sereno -6 -8 85 1021 10 N 1.8
Oggi h: 09:50 sereno Sereno -9 -11 85 1021 10 N 1.8
Oggi h: 09:20 sereno Sereno -9 -10 92 1021 10 N 3.7
Oggi h: 08:50 sereno Sereno -8 -9 92 1021 10 N 3.7
Oggi h: 08:20 sereno Sereno -9 -10 92 1021 10 N 5.5
Oggi h: 07:50 sereno Sereno -9 -10 92 1021 10 N 1.8
Oggi h: 07:20 sereno Sereno -9 -10 92 1021 10 N 1.8
Oggi h: 06:50 sereno Sereno -9 -10 92 1021 10 N 3.7
Oggi h: 06:20 sereno Sereno -9 -10 92 1020 10 N 5.5
Oggi h: 05:50 sereno Sereno -10 -11 92 1020 10 N 1.8
Oggi h: 05:20 sereno Sereno -8 -9 92 1020 10 N 1.8
Oggi h: 04:50 sereno Sereno -8 -9 92 1020 10 N 5.5
Oggi h: 04:20 sereno Sereno -8 -9 92 1020 10 N 3.7
Oggi h: 03:50 sereno Sereno -8 -9 92 1020 10 N 3.7
Oggi h: 03:20 sereno Sereno -8 -9 92 1020 10 N 5.5
Oggi h: 02:50 sereno Sereno -8 -9 92 1020 10 N 5.5
Oggi h: 02:20 sereno Sereno -7 -9 85 1020 10 N 1.8
Oggi h: 01:50 sereno Sereno -9 -10 92 1020 10 N 3.7
Oggi h: 01:20 sereno Sereno -8 -9 92 1020 10 N 1.8
Oggi h: 00:50 sereno Sereno -7 -8 92 1020 10 N 1.8
Oggi h: 00:20 sereno Sereno -7 -9 85 1020 10 N 3.7
Ieri h: 23:50 sereno Sereno -6 -8 85 1020 10 N 3.7
Ieri h: 23:20 sereno Sereno -6 -8 85 1020 10 N 5.5
Ieri h: 22:50 sereno Sereno -5 -7 85 1020 10 SO 7.4
Ieri h: 22:20 sereno Sereno -7 -9 85 1020 10 N 5.5
Ieri h: 21:50 sereno Sereno -6 -7 92 1020 10 N 1.8
Ieri h: 21:20 sereno Sereno -6 -7 92 1020 10 N 1.8
Ieri h: 20:50 sereno Sereno -4 -6 85 1020 10 S/SO 7.4
Ieri h: 20:20 sereno Sereno -5 -7 85 1020 10 N 5.5
Ieri h: 19:50 sereno Sereno -4 -6 85 1019 10 N 0
Ieri h: 19:20 sereno Sereno -3 -6 79 1019 10 N 1.8
Ieri h: 18:50 sereno Sereno -3 -5 86 1019 10 N 3.7
Ieri h: 18:20 sereno Sereno -2 -5 79 1019 10 N 5.5
Ieri h: 17:50 sereno Sereno -3 -5 86 1019 10 N 5.5
Ieri h: 17:20 sereno Sereno -0 -4 74 1019 10 N 1.8
Ieri h: 16:50 sereno Sereno 1 -5 64 1019 10 N 5.5
Ieri h: 16:20 sereno Sereno 2 -4 64 1019 10 S 9.3
Ieri h: 15:50 sereno Sereno 3 -3 64 1018 10 S 9.3
Ieri h: 15:20 sereno Sereno 2 -4 64 1018 10 N 3.7
Ieri h: 14:50 sereno Sereno 3 -4 59 1017 10 S 9.3